sensor_id;sensor_type;location;lat;lon;timestamp;P1;durP1;ratioP1;P2;durP2;ratioP2
58152;SDS011;43967;51.634;5.566;2023-03-13T00:01:37;10.00;;;2.40;;
58152;SDS011;43967;51.634;5.566;2023-03-13T00:07:09;8.68;;;2.38;;
58152;SDS011;43967;51.634;5.566;2023-03-13T00:12:30;8.68;;;2.47;;
58152;SDS011;43967;51.634;5.566;2023-03-13T00:17:51;9.53;;;2.30;;
58152;SDS011;43967;51.634;5.566;2023-03-13T00:23:13;9.23;;;2.25;;
58152;SDS011;43967;51.634;5.566;2023-03-13T00:28:35;8.85;;;2.30;;
58152;SDS011;43967;51.634;5.566;2023-03-13T00:33:59;8.60;;;2.57;;
58152;SDS011;43967;51.634;5.566;2023-03-13T00:39:21;8.10;;;2.20;;
58152;SDS011;43967;51.634;5.566;2023-03-13T00:44:42;9.73;;;2.45;;
58152;SDS011;43967;51.634;5.566;2023-03-13T00:50:04;9.52;;;2.58;;
58152;SDS011;43967;51.634;5.566;2023-03-13T00:55:25;8.50;;;2.23;;
58152;SDS011;43967;51.634;5.566;2023-03-13T01:00:46;8.25;;;2.10;;
58152;SDS011;43967;51.634;5.566;2023-03-13T01:06:09;8.70;;;2.35;;
58152;SDS011;43967;51.634;5.566;2023-03-13T01:11:33;9.73;;;2.53;;
58152;SDS011;43967;51.634;5.566;2023-03-13T01:16:56;9.10;;;2.28;;
58152;SDS011;43967;51.634;5.566;2023-03-13T01:22:17;8.75;;;2.10;;
58152;SDS011;43967;51.634;5.566;2023-03-13T01:27:38;8.80;;;2.27;;
58152;SDS011;43967;51.634;5.566;2023-03-13T01:33:00;9.37;;;2.47;;
58152;SDS011;43967;51.634;5.566;2023-03-13T01:38:21;8.30;;;2.20;;
58152;SDS011;43967;51.634;5.566;2023-03-13T01:43:43;8.75;;;2.20;;
58152;SDS011;43967;51.634;5.566;2023-03-13T01:49:12;8.30;;;1.97;;
58152;SDS011;43967;51.634;5.566;2023-03-13T02:00:07;8.40;;;2.10;;
58152;SDS011;43967;51.634;5.566;2023-03-13T02:05:34;9.03;;;2.07;;
58152;SDS011;43967;51.634;5.566;2023-03-13T02:11:03;7.93;;;2.00;;
58152;SDS011;43967;51.634;5.566;2023-03-13T02:16:44;8.55;;;2.35;;
58152;SDS011;43967;51.634;5.566;2023-03-13T02:28:12;7.40;;;2.07;;
58152;SDS011;43967;51.634;5.566;2023-03-13T02:33:38;7.65;;;1.90;;
58152;SDS011;43967;51.634;5.566;2023-03-13T02:39:01;7.50;;;2.10;;
58152;SDS011;43967;51.634;5.566;2023-03-13T02:44:25;9.17;;;2.00;;
58152;SDS011;43967;51.634;5.566;2023-03-13T02:49:47;7.20;;;2.10;;
58152;SDS011;43967;51.634;5.566;2023-03-13T02:55:09;8.15;;;2.25;;
58152;SDS011;43967;51.634;5.566;2023-03-13T03:00:34;8.30;;;2.30;;
58152;SDS011;43967;51.634;5.566;2023-03-13T03:05:56;8.75;;;2.05;;
58152;SDS011;43967;51.634;5.566;2023-03-13T03:11:18;7.88;;;1.90;;
58152;SDS011;43967;51.634;5.566;2023-03-13T03:16:39;6.90;;;1.97;;
58152;SDS011;43967;51.634;5.566;2023-03-13T03:22:00;8.20;;;1.80;;
58152;SDS011;43967;51.634;5.566;2023-03-13T03:27:22;8.07;;;1.85;;
58152;SDS011;43967;51.634;5.566;2023-03-13T03:32:43;7.82;;;2.17;;
58152;SDS011;43967;51.634;5.566;2023-03-13T03:38:04;9.30;;;1.90;;
58152;SDS011;43967;51.634;5.566;2023-03-13T03:43:26;7.78;;;2.10;;
58152;SDS011;43967;51.634;5.566;2023-03-13T03:48:47;6.90;;;1.92;;
58152;SDS011;43967;51.634;5.566;2023-03-13T03:54:08;7.53;;;2.27;;
58152;SDS011;43967;51.634;5.566;2023-03-13T03:59:30;7.25;;;2.50;;
58152;SDS011;43967;51.634;5.566;2023-03-13T04:04:51;6.75;;;1.77;;
58152;SDS011;43967;51.634;5.566;2023-03-13T04:10:12;6.00;;;1.73;;
58152;SDS011;43967;51.634;5.566;2023-03-13T04:15:34;6.93;;;2.03;;
58152;SDS011;43967;51.634;5.566;2023-03-13T04:21:01;7.78;;;2.15;;
58152;SDS011;43967;51.634;5.566;2023-03-13T04:26:23;7.45;;;2.20;;
58152;SDS011;43967;51.634;5.566;2023-03-13T04:31:45;6.53;;;1.77;;
58152;SDS011;43967;51.634;5.566;2023-03-13T04:37:06;6.90;;;2.05;;
58152;SDS011;43967;51.634;5.566;2023-03-13T04:42:27;7.10;;;1.70;;
58152;SDS011;43967;51.634;5.566;2023-03-13T04:47:49;5.87;;;1.90;;
58152;SDS011;43967;51.634;5.566;2023-03-13T04:53:10;8.07;;;1.60;;
58152;SDS011;43967;51.634;5.566;2023-03-13T04:58:31;6.13;;;1.67;;
58152;SDS011;43967;51.634;5.566;2023-03-13T05:03:53;6.47;;;2.10;;
58152;SDS011;43967;51.634;5.566;2023-03-13T05:09:14;7.43;;;1.60;;
58152;SDS011;43967;51.634;5.566;2023-03-13T05:14:35;6.13;;;1.40;;
58152;SDS011;43967;51.634;5.566;2023-03-13T05:19:57;6.10;;;1.60;;
58152;SDS011;43967;51.634;5.566;2023-03-13T05:25:18;5.97;;;1.60;;
58152;SDS011;43967;51.634;5.566;2023-03-13T05:30:39;6.50;;;1.27;;
58152;SDS011;43967;51.634;5.566;2023-03-13T05:36:00;6.32;;;1.73;;
58152;SDS011;43967;51.634;5.566;2023-03-13T05:41:22;6.53;;;1.83;;
58152;SDS011;43967;51.634;5.566;2023-03-13T05:46:43;6.10;;;1.70;;
58152;SDS011;43967;51.634;5.566;2023-03-13T05:52:04;5.25;;;1.20;;
58152;SDS011;43967;51.634;5.566;2023-03-13T05:57:25;6.10;;;1.70;;
58152;SDS011;43967;51.634;5.566;2023-03-13T06:02:47;6.30;;;1.90;;
58152;SDS011;43967;51.634;5.566;2023-03-13T06:08:09;6.35;;;1.73;;
58152;SDS011;43967;51.634;5.566;2023-03-13T06:13:31;6.22;;;1.75;;
58152;SDS011;43967;51.634;5.566;2023-03-13T06:18:52;5.63;;;1.40;;
58152;SDS011;43967;51.634;5.566;2023-03-13T06:24:13;6.72;;;1.50;;
58152;SDS011;43967;51.634;5.566;2023-03-13T06:29:35;6.22;;;1.70;;
58152;SDS011;43967;51.634;5.566;2023-03-13T06:34:56;5.80;;;1.40;;
58152;SDS011;43967;51.634;5.566;2023-03-13T06:40:17;5.82;;;1.40;;
58152;SDS011;43967;51.634;5.566;2023-03-13T06:45:39;6.57;;;1.50;;
58152;SDS011;43967;51.634;5.566;2023-03-13T06:51:00;5.50;;;1.40;;
58152;SDS011;43967;51.634;5.566;2023-03-13T06:56:21;5.57;;;1.60;;
58152;SDS011;43967;51.634;5.566;2023-03-13T07:01:43;5.95;;;1.50;;
58152;SDS011;43967;51.634;5.566;2023-03-13T07:07:04;5.18;;;1.38;;
58152;SDS011;43967;51.634;5.566;2023-03-13T07:12:26;5.63;;;1.53;;
58152;SDS011;43967;51.634;5.566;2023-03-13T07:17:47;6.22;;;1.52;;
58152;SDS011;43967;51.634;5.566;2023-03-13T07:23:08;4.95;;;1.27;;
58152;SDS011;43967;51.634;5.566;2023-03-13T07:28:30;6.30;;;1.93;;
58152;SDS011;43967;51.634;5.566;2023-03-13T07:33:54;5.85;;;1.40;;
58152;SDS011;43967;51.634;5.566;2023-03-13T07:39:15;5.38;;;1.40;;
58152;SDS011;43967;51.634;5.566;2023-03-13T07:44:37;6.23;;;1.73;;
58152;SDS011;43967;51.634;5.566;2023-03-13T07:49:58;7.50;;;1.63;;
58152;SDS011;43967;51.634;5.566;2023-03-13T07:55:19;6.15;;;1.60;;
58152;SDS011;43967;51.634;5.566;2023-03-13T08:00:40;6.18;;;1.85;;
58152;SDS011;43967;51.634;5.566;2023-03-13T08:06:06;5.77;;;1.57;;
58152;SDS011;43967;51.634;5.566;2023-03-13T08:11:29;5.85;;;1.40;;
58152;SDS011;43967;51.634;5.566;2023-03-13T08:16:50;6.93;;;1.42;;
58152;SDS011;43967;51.634;5.566;2023-03-13T08:22:11;5.83;;;1.47;;
58152;SDS011;43967;51.634;5.566;2023-03-13T08:27:33;7.15;;;1.90;;
58152;SDS011;43967;51.634;5.566;2023-03-13T08:32:55;8.98;;;2.00;;
58152;SDS011;43967;51.634;5.566;2023-03-13T08:38:16;6.50;;;1.77;;
58152;SDS011;43967;51.634;5.566;2023-03-13T08:43:37;7.87;;;1.80;;
58152;SDS011;43967;51.634;5.566;2023-03-13T08:48:58;5.95;;;1.38;;
58152;SDS011;43967;51.634;5.566;2023-03-13T08:54:20;6.25;;;1.80;;
58152;SDS011;43967;51.634;5.566;2023-03-13T08:59:41;7.10;;;1.60;;
58152;SDS011;43967;51.634;5.566;2023-03-13T09:05:02;6.80;;;1.65;;
58152;SDS011;43967;51.634;5.566;2023-03-13T09:10:24;9.32;;;1.77;;
58152;SDS011;43967;51.634;5.566;2023-03-13T09:15:52;6.37;;;1.73;;
58152;SDS011;43967;51.634;5.566;2023-03-13T09:21:15;8.50;;;1.70;;
58152;SDS011;43967;51.634;5.566;2023-03-13T09:26:38;7.80;;;1.60;;
58152;SDS011;43967;51.634;5.566;2023-03-13T09:32:00;6.53;;;1.63;;
58152;SDS011;43967;51.634;5.566;2023-03-13T09:37:21;6.80;;;1.73;;
58152;SDS011;43967;51.634;5.566;2023-03-13T09:59:34;7.45;;;1.80;;
58152;SDS011;43967;51.634;5.566;2023-03-13T10:05:07;6.78;;;1.60;;
58152;SDS011;43967;51.634;5.566;2023-03-13T10:10:37;7.50;;;2.00;;
58152;SDS011;43967;51.634;5.566;2023-03-13T10:16:05;6.65;;;1.50;;
58152;SDS011;43967;51.634;5.566;2023-03-13T10:21:31;6.53;;;1.52;;
58152;SDS011;43967;51.634;5.566;2023-03-13T10:26:55;6.33;;;1.80;;
58152;SDS011;43967;51.634;5.566;2023-03-13T10:32:17;7.23;;;1.80;;
58152;SDS011;43967;51.634;5.566;2023-03-13T10:37:40;9.60;;;1.67;;
58152;SDS011;43967;51.634;5.566;2023-03-13T10:43:04;8.88;;;1.73;;
58152;SDS011;43967;51.634;5.566;2023-03-13T10:48:34;8.13;;;1.70;;
58152;SDS011;43967;51.634;5.566;2023-03-13T10:53:56;7.13;;;1.45;;
58152;SDS011;43967;51.634;5.566;2023-03-13T10:59:25;5.88;;;1.50;;
58152;SDS011;43967;51.634;5.566;2023-03-13T11:04:47;8.73;;;1.65;;
58152;SDS011;43967;51.634;5.566;2023-03-13T11:15:46;10.75;;;1.98;;
58152;SDS011;43967;51.634;5.566;2023-03-13T11:21:16;7.18;;;1.70;;
58152;SDS011;43967;51.634;5.566;2023-03-13T11:27:21;7.50;;;1.90;;
58152;SDS011;43967;51.634;5.566;2023-03-13T11:32:53;6.35;;;1.50;;
58152;SDS011;43967;51.634;5.566;2023-03-13T11:38:31;6.53;;;1.70;;
58152;SDS011;43967;51.634;5.566;2023-03-13T11:44:00;7.10;;;1.67;;
58152;SDS011;43967;51.634;5.566;2023-03-13T12:06:32;5.30;;;1.30;;
58152;SDS011;43967;51.634;5.566;2023-03-13T12:12:14;5.70;;;1.52;;
58152;SDS011;43967;51.634;5.566;2023-03-13T12:28:56;4.65;;;1.30;;
58152;SDS011;43967;51.634;5.566;2023-03-13T12:34:32;5.18;;;1.50;;
58152;SDS011;43967;51.634;5.566;2023-03-13T12:40:09;6.70;;;1.50;;
58152;SDS011;43967;51.634;5.566;2023-03-13T12:45:43;5.50;;;1.60;;
58152;SDS011;43967;51.634;5.566;2023-03-13T12:57:07;5.93;;;1.30;;
58152;SDS011;43967;51.634;5.566;2023-03-13T13:02:36;5.50;;;1.47;;
58152;SDS011;43967;51.634;5.566;2023-03-13T13:07:57;6.40;;;2.00;;
58152;SDS011;43967;51.634;5.566;2023-03-13T13:13:28;6.00;;;1.40;;
58152;SDS011;43967;51.634;5.566;2023-03-13T13:18:49;6.23;;;1.67;;
58152;SDS011;43967;51.634;5.566;2023-03-13T13:24:54;5.55;;;1.33;;
58152;SDS011;43967;51.634;5.566;2023-03-13T13:30:02;10.40;;;5.80;;
58152;SDS011;43967;51.634;5.566;2023-03-13T13:35:44;10.67;;;5.57;;
58152;SDS011;43967;51.634;5.566;2023-03-13T13:46:31;9.60;;;4.60;;
58152;SDS011;43967;51.634;5.566;2023-03-13T13:57:25;7.83;;;3.37;;
58152;SDS011;43967;51.634;5.566;2023-03-13T14:02:50;9.25;;;3.90;;
58152;SDS011;43967;51.634;5.566;2023-03-13T14:08:16;9.90;;;4.03;;
58152;SDS011;43967;51.634;5.566;2023-03-13T14:13:43;7.37;;;2.83;;
58152;SDS011;43967;51.634;5.566;2023-03-13T14:19:05;8.57;;;3.17;;
58152;SDS011;43967;51.634;5.566;2023-03-13T14:24:41;7.82;;;3.20;;
58152;SDS011;43967;51.634;5.566;2023-03-13T14:30:17;7.30;;;2.80;;
58152;SDS011;43967;51.634;5.566;2023-03-13T14:35:40;7.80;;;2.93;;
58152;SDS011;43967;51.634;5.566;2023-03-13T14:41:02;7.30;;;2.67;;
58152;SDS011;43967;51.634;5.566;2023-03-13T14:52:05;6.53;;;2.37;;
58152;SDS011;43967;51.634;5.566;2023-03-13T14:57:34;7.78;;;2.85;;
58152;SDS011;43967;51.634;5.566;2023-03-13T15:14:39;6.53;;;2.42;;
58152;SDS011;43967;51.634;5.566;2023-03-13T15:20:02;7.43;;;2.22;;
58152;SDS011;43967;51.634;5.566;2023-03-13T15:25:23;8.13;;;2.60;;
58152;SDS011;43967;51.634;5.566;2023-03-13T15:30:45;7.00;;;2.73;;
58152;SDS011;43967;51.634;5.566;2023-03-13T15:36:09;7.95;;;2.58;;
58152;SDS011;43967;51.634;5.566;2023-03-13T15:41:30;6.45;;;2.10;;
58152;SDS011;43967;51.634;5.566;2023-03-13T15:46:52;6.33;;;2.20;;
58152;SDS011;43967;51.634;5.566;2023-03-13T15:52:14;6.50;;;2.30;;
58152;SDS011;43967;51.634;5.566;2023-03-13T15:57:44;7.57;;;2.00;;
58152;SDS011;43967;51.634;5.566;2023-03-13T16:03:26;7.63;;;2.20;;
58152;SDS011;43967;51.634;5.566;2023-03-13T16:08:48;7.45;;;2.17;;
58152;SDS011;43967;51.634;5.566;2023-03-13T16:14:10;6.82;;;2.22;;
58152;SDS011;43967;51.634;5.566;2023-03-13T16:19:31;10.43;;;2.13;;
58152;SDS011;43967;51.634;5.566;2023-03-13T16:24:52;7.23;;;2.10;;
58152;SDS011;43967;51.634;5.566;2023-03-13T16:30:17;9.63;;;1.92;;
58152;SDS011;43967;51.634;5.566;2023-03-13T16:35:44;11.15;;;2.20;;
58152;SDS011;43967;51.634;5.566;2023-03-13T16:41:05;8.10;;;2.10;;
58152;SDS011;43967;51.634;5.566;2023-03-13T16:46:37;6.60;;;1.92;;
58152;SDS011;43967;51.634;5.566;2023-03-13T16:51:59;5.95;;;1.70;;
58152;SDS011;43967;51.634;5.566;2023-03-13T16:57:22;9.33;;;2.00;;
58152;SDS011;43967;51.634;5.566;2023-03-13T17:02:44;6.80;;;1.80;;
58152;SDS011;43967;51.634;5.566;2023-03-13T17:08:05;7.05;;;1.63;;
58152;SDS011;43967;51.634;5.566;2023-03-13T17:13:27;8.03;;;2.10;;
58152;SDS011;43967;51.634;5.566;2023-03-13T17:18:52;5.93;;;1.60;;
58152;SDS011;43967;51.634;5.566;2023-03-13T17:24:13;6.45;;;2.00;;
58152;SDS011;43967;51.634;5.566;2023-03-13T17:29:34;8.38;;;1.70;;
58152;SDS011;43967;51.634;5.566;2023-03-13T17:34:56;7.87;;;1.90;;
58152;SDS011;43967;51.634;5.566;2023-03-13T17:40:18;6.45;;;1.83;;
58152;SDS011;43967;51.634;5.566;2023-03-13T17:45:44;7.35;;;2.05;;
58152;SDS011;43967;51.634;5.566;2023-03-13T17:51:10;7.03;;;1.67;;
58152;SDS011;43967;51.634;5.566;2023-03-13T17:56:34;9.15;;;2.08;;
58152;SDS011;43967;51.634;5.566;2023-03-13T18:01:57;6.82;;;1.90;;
58152;SDS011;43967;51.634;5.566;2023-03-13T18:07:22;7.73;;;2.00;;
58152;SDS011;43967;51.634;5.566;2023-03-13T18:12:46;7.43;;;1.93;;
58152;SDS011;43967;51.634;5.566;2023-03-13T18:18:10;7.05;;;1.88;;
58152;SDS011;43967;51.634;5.566;2023-03-13T18:23:35;8.75;;;2.05;;
58152;SDS011;43967;51.634;5.566;2023-03-13T18:28:57;8.03;;;1.70;;
58152;SDS011;43967;51.634;5.566;2023-03-13T18:34:19;7.78;;;2.10;;
58152;SDS011;43967;51.634;5.566;2023-03-13T18:39:41;9.63;;;1.90;;
58152;SDS011;43967;51.634;5.566;2023-03-13T18:45:03;10.80;;;2.10;;
58152;SDS011;43967;51.634;5.566;2023-03-13T18:50:29;8.73;;;1.95;;
58152;SDS011;43967;51.634;5.566;2023-03-13T18:55:51;8.82;;;2.00;;
58152;SDS011;43967;51.634;5.566;2023-03-13T19:01:13;11.50;;;2.10;;
58152;SDS011;43967;51.634;5.566;2023-03-13T19:06:35;9.37;;;2.00;;
58152;SDS011;43967;51.634;5.566;2023-03-13T19:11:57;11.00;;;1.90;;
58152;SDS011;43967;51.634;5.566;2023-03-13T19:17:20;11.80;;;2.33;;
58152;SDS011;43967;51.634;5.566;2023-03-13T19:22:44;8.80;;;1.90;;
58152;SDS011;43967;51.634;5.566;2023-03-13T19:28:07;12.05;;;2.55;;
58152;SDS011;43967;51.634;5.566;2023-03-13T19:33:29;13.63;;;2.20;;
58152;SDS011;43967;51.634;5.566;2023-03-13T19:38:50;8.33;;;2.23;;
58152;SDS011;43967;51.634;5.566;2023-03-13T19:44:11;9.48;;;1.95;;
58152;SDS011;43967;51.634;5.566;2023-03-13T19:49:33;15.43;;;2.22;;
58152;SDS011;43967;51.634;5.566;2023-03-13T19:54:54;10.27;;;2.10;;
58152;SDS011;43967;51.634;5.566;2023-03-13T20:00:17;7.43;;;2.00;;
58152;SDS011;43967;51.634;5.566;2023-03-13T20:05:43;13.98;;;1.90;;
58152;SDS011;43967;51.634;5.566;2023-03-13T20:11:04;11.07;;;2.20;;
58152;SDS011;43967;51.634;5.566;2023-03-13T20:16:26;14.07;;;1.90;;
58152;SDS011;43967;51.634;5.566;2023-03-13T20:21:47;13.70;;;2.20;;
58152;SDS011;43967;51.634;5.566;2023-03-13T20:27:09;11.30;;;2.00;;
58152;SDS011;43967;51.634;5.566;2023-03-13T20:32:30;10.57;;;2.50;;
58152;SDS011;43967;51.634;5.566;2023-03-13T20:37:51;9.48;;;2.10;;
58152;SDS011;43967;51.634;5.566;2023-03-13T20:43:13;9.15;;;2.08;;
58152;SDS011;43967;51.634;5.566;2023-03-13T20:48:34;11.93;;;2.00;;
58152;SDS011;43967;51.634;5.566;2023-03-13T20:53:56;10.03;;;2.40;;
58152;SDS011;43967;51.634;5.566;2023-03-13T20:59:17;7.32;;;2.00;;
58152;SDS011;43967;51.634;5.566;2023-03-13T21:04:39;12.45;;;2.63;;
58152;SDS011;43967;51.634;5.566;2023-03-13T21:10:00;9.57;;;2.20;;
58152;SDS011;43967;51.634;5.566;2023-03-13T21:15:22;10.70;;;2.10;;
58152;SDS011;43967;51.634;5.566;2023-03-13T21:20:43;9.55;;;1.73;;
58152;SDS011;43967;51.634;5.566;2023-03-13T21:26:04;6.87;;;1.90;;
58152;SDS011;43967;51.634;5.566;2023-03-13T21:31:26;8.07;;;1.80;;
58152;SDS011;43967;51.634;5.566;2023-03-13T21:36:47;7.22;;;2.05;;
58152;SDS011;43967;51.634;5.566;2023-03-13T21:42:09;8.07;;;1.80;;
58152;SDS011;43967;51.634;5.566;2023-03-13T21:47:32;7.57;;;1.87;;
58152;SDS011;43967;51.634;5.566;2023-03-13T21:52:53;8.13;;;1.95;;
58152;SDS011;43967;51.634;5.566;2023-03-13T21:58:15;7.57;;;1.77;;
58152;SDS011;43967;51.634;5.566;2023-03-13T22:03:37;6.53;;;1.60;;
58152;SDS011;43967;51.634;5.566;2023-03-13T22:08:58;7.53;;;2.17;;
58152;SDS011;43967;51.634;5.566;2023-03-13T22:14:21;8.95;;;1.88;;
58152;SDS011;43967;51.634;5.566;2023-03-13T22:19:42;9.03;;;2.23;;
58152;SDS011;43967;51.634;5.566;2023-03-13T22:25:03;6.97;;;1.55;;
58152;SDS011;43967;51.634;5.566;2023-03-13T22:30:25;7.10;;;1.70;;
58152;SDS011;43967;51.634;5.566;2023-03-13T22:35:48;7.03;;;1.87;;
58152;SDS011;43967;51.634;5.566;2023-03-13T22:41:11;7.47;;;1.60;;
58152;SDS011;43967;51.634;5.566;2023-03-13T22:46:33;8.02;;;2.13;;
58152;SDS011;43967;51.634;5.566;2023-03-13T22:51:54;7.40;;;1.92;;
58152;SDS011;43967;51.634;5.566;2023-03-13T22:57:15;6.63;;;1.80;;
58152;SDS011;43967;51.634;5.566;2023-03-13T23:02:36;8.10;;;1.98;;
58152;SDS011;43967;51.634;5.566;2023-03-13T23:07:58;7.68;;;2.30;;
58152;SDS011;43967;51.634;5.566;2023-03-13T23:13:19;6.67;;;1.80;;
58152;SDS011;43967;51.634;5.566;2023-03-13T23:18:40;7.55;;;1.90;;
58152;SDS011;43967;51.634;5.566;2023-03-13T23:24:02;7.10;;;2.13;;
58152;SDS011;43967;51.634;5.566;2023-03-13T23:29:23;6.53;;;1.80;;
58152;SDS011;43967;51.634;5.566;2023-03-13T23:34:44;6.63;;;1.70;;
58152;SDS011;43967;51.634;5.566;2023-03-13T23:40:06;8.60;;;1.73;;
58152;SDS011;43967;51.634;5.566;2023-03-13T23:45:28;6.22;;;1.85;;
58152;SDS011;43967;51.634;5.566;2023-03-13T23:50:50;6.70;;;1.80;;
58152;SDS011;43967;51.634;5.566;2023-03-13T23:56:11;7.38;;;1.92;;
